sensor_id;sensor_type;location;lat;lon;timestamp;pressure;altitude;pressure_sealevel;temperature;humidity
14067;BME280;7108;42.684;23.350;2022-08-19T00:01:16;95034.63;;;23.20;91.99
14067;BME280;7108;42.684;23.350;2022-08-19T00:03:42;95034.97;;;23.10;93.04
14067;BME280;7108;42.684;23.350;2022-08-19T00:06:07;95058.81;;;23.25;92.88
14067;BME280;7108;42.684;23.350;2022-08-19T00:08:35;95037.03;;;23.18;92.24
14067;BME280;7108;42.684;23.350;2022-08-19T00:11:00;95056.81;;;23.26;92.39
14067;BME280;7108;42.684;23.350;2022-08-19T00:13:26;95038.25;;;23.17;92.63
14067;BME280;7108;42.684;23.350;2022-08-19T00:15:54;95038.81;;;23.13;93.15
14067;BME280;7108;42.684;23.350;2022-08-19T00:18:20;95054.31;;;23.19;92.30
14067;BME280;7108;42.684;23.350;2022-08-19T00:20:45;95053.53;;;23.18;91.38
14067;BME280;7108;42.684;23.350;2022-08-19T00:23:11;95053.31;;;23.13;90.82
14067;BME280;7108;42.684;23.350;2022-08-19T00:25:37;95051.56;;;23.07;92.48
14067;BME280;7108;42.684;23.350;2022-08-19T00:28:03;95066.19;;;23.16;93.69
14067;BME280;7108;42.684;23.350;2022-08-19T00:30:29;95056.06;;;23.13;93.10
14067;BME280;7108;42.684;23.350;2022-08-19T00:32:56;95061.03;;;23.06;93.84
14067;BME280;7108;42.684;23.350;2022-08-19T00:35:22;95058.16;;;22.97;93.18
14067;BME280;7108;42.684;23.350;2022-08-19T00:37:48;95059.25;;;22.99;93.18
14067;BME280;7108;42.684;23.350;2022-08-19T00:40:15;95051.88;;;22.96;93.83
14067;BME280;7108;42.684;23.350;2022-08-19T00:42:41;95049.88;;;22.84;93.44
14067;BME280;7108;42.684;23.350;2022-08-19T00:45:27;95051.97;;;22.93;93.00
14067;BME280;7108;42.684;23.350;2022-08-19T00:47:53;95045.28;;;22.94;93.19
14067;BME280;7108;42.684;23.350;2022-08-19T00:50:20;95048.03;;;22.81;95.18
14067;BME280;7108;42.684;23.350;2022-08-19T00:52:49;95045.06;;;22.76;96.54
14067;BME280;7108;42.684;23.350;2022-08-19T00:55:24;95051.44;;;22.73;97.23
14067;BME280;7108;42.684;23.350;2022-08-19T00:57:54;95052.06;;;22.77;97.14
14067;BME280;7108;42.684;23.350;2022-08-19T01:00:23;95047.03;;;22.75;97.18
14067;BME280;7108;42.684;23.350;2022-08-19T01:02:49;95048.22;;;22.74;96.90
14067;BME280;7108;42.684;23.350;2022-08-19T01:05:18;95034.84;;;22.64;97.41
14067;BME280;7108;42.684;23.350;2022-08-19T01:07:47;95060.75;;;22.75;99.41
14067;BME280;7108;42.684;23.350;2022-08-19T01:10:17;95052.41;;;22.66;99.81
14067;BME280;7108;42.684;23.350;2022-08-19T01:12:45;95047.47;;;22.61;99.90
14067;BME280;7108;42.684;23.350;2022-08-19T01:15:12;95053.41;;;22.60;100.00
14067;BME280;7108;42.684;23.350;2022-08-19T01:17:39;95047.56;;;22.45;100.00
14067;BME280;7108;42.684;23.350;2022-08-19T01:20:10;95054.38;;;22.53;100.00
14067;BME280;7108;42.684;23.350;2022-08-19T01:25:09;95050.66;;;22.47;100.00
14067;BME280;7108;42.684;23.350;2022-08-19T01:27:47;95052.06;;;22.52;100.00
14067;BME280;7108;42.684;23.350;2022-08-19T01:30:26;95044.94;;;22.54;100.00
14067;BME280;7108;42.684;23.350;2022-08-19T01:32:52;95046.81;;;22.45;100.00
14067;BME280;7108;42.684;23.350;2022-08-19T01:35:19;95050.94;;;22.37;100.00
14067;BME280;7108;42.684;23.350;2022-08-19T01:40:12;95048.94;;;22.38;100.00
14067;BME280;7108;42.684;23.350;2022-08-19T01:42:37;95026.00;;;22.32;100.00
14067;BME280;7108;42.684;23.350;2022-08-19T01:45:04;95046.22;;;22.38;100.00
14067;BME280;7108;42.684;23.350;2022-08-19T01:47:30;95042.50;;;22.32;100.00
14067;BME280;7108;42.684;23.350;2022-08-19T01:49:58;95038.84;;;22.35;100.00
14067;BME280;7108;42.684;23.350;2022-08-19T01:52:23;95050.13;;;22.24;100.00
14067;BME280;7108;42.684;23.350;2022-08-19T01:54:48;95056.72;;;22.27;100.00
14067;BME280;7108;42.684;23.350;2022-08-19T01:57:14;95054.66;;;22.31;100.00
14067;BME280;7108;42.684;23.350;2022-08-19T01:59:41;95044.38;;;22.19;100.00
14067;BME280;7108;42.684;23.350;2022-08-19T02:02:07;95036.25;;;22.15;100.00
14067;BME280;7108;42.684;23.350;2022-08-19T02:04:34;95048.03;;;22.16;100.00
14067;BME280;7108;42.684;23.350;2022-08-19T02:07:00;95050.94;;;22.09;100.00
14067;BME280;7108;42.684;23.350;2022-08-19T02:09:25;95063.25;;;22.17;100.00
14067;BME280;7108;42.684;23.350;2022-08-19T02:11:51;95045.91;;;22.07;100.00
14067;BME280;7108;42.684;23.350;2022-08-19T02:14:17;95051.97;;;22.15;100.00
14067;BME280;7108;42.684;23.350;2022-08-19T02:16:42;95044.00;;;22.04;100.00
14067;BME280;7108;42.684;23.350;2022-08-19T02:19:08;95041.56;;;21.94;100.00
14067;BME280;7108;42.684;23.350;2022-08-19T02:21:33;95047.28;;;21.99;100.00
14067;BME280;7108;42.684;23.350;2022-08-19T02:23:59;95037.81;;;21.88;100.00
14067;BME280;7108;42.684;23.350;2022-08-19T02:26:25;95048.75;;;22.04;100.00
14067;BME280;7108;42.684;23.350;2022-08-19T02:28:54;95042.88;;;21.89;100.00
14067;BME280;7108;42.684;23.350;2022-08-19T02:31:23;95057.16;;;21.97;100.00
14067;BME280;7108;42.684;23.350;2022-08-19T02:33:48;95051.09;;;21.89;100.00
14067;BME280;7108;42.684;23.350;2022-08-19T02:36:16;95065.16;;;21.91;100.00
14067;BME280;7108;42.684;23.350;2022-08-19T02:38:42;95044.28;;;21.81;100.00
14067;BME280;7108;42.684;23.350;2022-08-19T02:41:19;95056.25;;;21.87;100.00
14067;BME280;7108;42.684;23.350;2022-08-19T02:43:45;95062.50;;;21.88;100.00
14067;BME280;7108;42.684;23.350;2022-08-19T02:46:22;95065.25;;;21.88;100.00
14067;BME280;7108;42.684;23.350;2022-08-19T02:48:50;95068.44;;;21.86;100.00
14067;BME280;7108;42.684;23.350;2022-08-19T02:51:21;95053.06;;;21.61;100.00
14067;BME280;7108;42.684;23.350;2022-08-19T02:53:47;95060.41;;;21.64;100.00
14067;BME280;7108;42.684;23.350;2022-08-19T02:56:13;95068.56;;;21.67;100.00
14067;BME280;7108;42.684;23.350;2022-08-19T02:58:39;95074.31;;;21.73;100.00
14067;BME280;7108;42.684;23.350;2022-08-19T03:01:05;95061.09;;;21.68;100.00
14067;BME280;7108;42.684;23.350;2022-08-19T03:03:31;95071.13;;;21.74;100.00
14067;BME280;7108;42.684;23.350;2022-08-19T03:06:11;95065.72;;;21.71;100.00
14067;BME280;7108;42.684;23.350;2022-08-19T03:08:39;95067.69;;;21.70;100.00
14067;BME280;7108;42.684;23.350;2022-08-19T03:11:05;95055.53;;;21.55;100.00
14067;BME280;7108;42.684;23.350;2022-08-19T03:13:31;95070.44;;;21.70;100.00
14067;BME280;7108;42.684;23.350;2022-08-19T03:15:56;95063.50;;;21.66;100.00
14067;BME280;7108;42.684;23.350;2022-08-19T03:18:22;95072.25;;;21.61;100.00
14067;BME280;7108;42.684;23.350;2022-08-19T03:20:50;95063.25;;;21.60;100.00
14067;BME280;7108;42.684;23.350;2022-08-19T03:23:18;95049.97;;;21.43;100.00
14067;BME280;7108;42.684;23.350;2022-08-19T03:25:46;95038.84;;;21.34;100.00
14067;BME280;7108;42.684;23.350;2022-08-19T03:28:13;95062.41;;;21.47;100.00
14067;BME280;7108;42.684;23.350;2022-08-19T03:30:41;95064.03;;;21.45;100.00
14067;BME280;7108;42.684;23.350;2022-08-19T03:33:08;95053.75;;;21.33;100.00
14067;BME280;7108;42.684;23.350;2022-08-19T03:35:34;95056.84;;;21.35;100.00
14067;BME280;7108;42.684;23.350;2022-08-19T03:38:05;95067.28;;;21.40;100.00
14067;BME280;7108;42.684;23.350;2022-08-19T03:40:36;95071.66;;;21.37;100.00
14067;BME280;7108;42.684;23.350;2022-08-19T03:43:02;95061.13;;;21.36;100.00
14067;BME280;7108;42.684;23.350;2022-08-19T03:45:27;95077.66;;;21.32;100.00
14067;BME280;7108;42.684;23.350;2022-08-19T03:47:53;95086.22;;;21.34;100.00
14067;BME280;7108;42.684;23.350;2022-08-19T03:50:19;95077.38;;;21.27;100.00
14067;BME280;7108;42.684;23.350;2022-08-19T03:52:51;95082.53;;;21.25;100.00
14067;BME280;7108;42.684;23.350;2022-08-19T03:55:18;95088.78;;;21.25;100.00
14067;BME280;7108;42.684;23.350;2022-08-19T03:57:43;95096.78;;;21.36;100.00
14067;BME280;7108;42.684;23.350;2022-08-19T04:00:10;95089.06;;;21.31;100.00
14067;BME280;7108;42.684;23.350;2022-08-19T04:02:36;95097.16;;;21.34;100.00
14067;BME280;7108;42.684;23.350;2022-08-19T04:05:02;95106.63;;;21.33;100.00
14067;BME280;7108;42.684;23.350;2022-08-19T04:07:27;95093.59;;;21.21;100.00
14067;BME280;7108;42.684;23.350;2022-08-19T04:09:53;95107.53;;;21.27;100.00
14067;BME280;7108;42.684;23.350;2022-08-19T04:12:18;95088.63;;;21.16;100.00
14067;BME280;7108;42.684;23.350;2022-08-19T04:14:45;95102.75;;;21.31;100.00
14067;BME280;7108;42.684;23.350;2022-08-19T04:17:11;95084.09;;;21.10;100.00
14067;BME280;7108;42.684;23.350;2022-08-19T04:19:38;95106.34;;;21.28;100.00
14067;BME280;7108;42.684;23.350;2022-08-19T04:22:04;95105.50;;;21.31;100.00
14067;BME280;7108;42.684;23.350;2022-08-19T04:24:30;95103.53;;;21.31;100.00
14067;BME280;7108;42.684;23.350;2022-08-19T04:26:55;95095.22;;;21.35;100.00
14067;BME280;7108;42.684;23.350;2022-08-19T04:29:23;95111.91;;;21.40;100.00
14067;BME280;7108;42.684;23.350;2022-08-19T04:31:51;95110.81;;;21.38;100.00
14067;BME280;7108;42.684;23.350;2022-08-19T04:34:20;95109.44;;;21.46;100.00
14067;BME280;7108;42.684;23.350;2022-08-19T04:36:50;95115.56;;;21.53;100.00
14067;BME280;7108;42.684;23.350;2022-08-19T04:39:19;95116.91;;;21.61;100.00
14067;BME280;7108;42.684;23.350;2022-08-19T04:41:46;95107.31;;;21.53;100.00
14067;BME280;7108;42.684;23.350;2022-08-19T04:44:32;95100.13;;;21.59;100.00
14067;BME280;7108;42.684;23.350;2022-08-19T04:46:58;95103.88;;;21.65;100.00
14067;BME280;7108;42.684;23.350;2022-08-19T04:49:23;95111.34;;;21.65;100.00
14067;BME280;7108;42.684;23.350;2022-08-19T04:51:52;95099.09;;;21.69;100.00
14067;BME280;7108;42.684;23.350;2022-08-19T04:54:20;95110.63;;;21.77;100.00
14067;BME280;7108;42.684;23.350;2022-08-19T04:56:51;95099.00;;;21.73;100.00
14067;BME280;7108;42.684;23.350;2022-08-19T04:59:18;95110.78;;;21.85;100.00
14067;BME280;7108;42.684;23.350;2022-08-19T05:01:46;95104.78;;;21.90;100.00
14067;BME280;7108;42.684;23.350;2022-08-19T05:04:16;95117.44;;;22.00;100.00
14067;BME280;7108;42.684;23.350;2022-08-19T05:06:42;95107.00;;;21.95;100.00
14067;BME280;7108;42.684;23.350;2022-08-19T05:09:08;95110.97;;;22.07;100.00
14067;BME280;7108;42.684;23.350;2022-08-19T05:11:36;95122.97;;;22.13;100.00
14067;BME280;7108;42.684;23.350;2022-08-19T05:14:05;95118.84;;;22.21;100.00
14067;BME280;7108;42.684;23.350;2022-08-19T05:16:31;95106.75;;;22.18;100.00
14067;BME280;7108;42.684;23.350;2022-08-19T05:18:57;95110.09;;;22.26;100.00
14067;BME280;7108;42.684;23.350;2022-08-19T05:21:41;95111.00;;;22.35;100.00
14067;BME280;7108;42.684;23.350;2022-08-19T05:24:26;95121.97;;;22.35;100.00
14067;BME280;7108;42.684;23.350;2022-08-19T05:26:53;95112.44;;;22.40;100.00
14067;BME280;7108;42.684;23.350;2022-08-19T05:29:23;95125.22;;;22.46;100.00
14067;BME280;7108;42.684;23.350;2022-08-19T05:31:49;95112.94;;;22.50;100.00
14067;BME280;7108;42.684;23.350;2022-08-19T05:34:18;95122.38;;;22.62;100.00
14067;BME280;7108;42.684;23.350;2022-08-19T05:36:46;95121.38;;;22.56;100.00
14067;BME280;7108;42.684;23.350;2022-08-19T05:39:19;95125.78;;;22.53;100.00
14067;BME280;7108;42.684;23.350;2022-08-19T05:41:47;95112.59;;;22.48;100.00
14067;BME280;7108;42.684;23.350;2022-08-19T05:44:14;95117.16;;;22.67;100.00
14067;BME280;7108;42.684;23.350;2022-08-19T05:46:43;95121.56;;;22.77;100.00
14067;BME280;7108;42.684;23.350;2022-08-19T05:49:09;95131.56;;;22.84;100.00
14067;BME280;7108;42.684;23.350;2022-08-19T05:51:36;95103.22;;;22.87;100.00
14067;BME280;7108;42.684;23.350;2022-08-19T05:54:05;95115.34;;;23.02;100.00
14067;BME280;7108;42.684;23.350;2022-08-19T05:56:32;95114.91;;;23.03;98.83
14067;BME280;7108;42.684;23.350;2022-08-19T05:59:00;95116.63;;;22.97;98.98
14067;BME280;7108;42.684;23.350;2022-08-19T06:01:26;95111.56;;;22.96;99.76
14067;BME280;7108;42.684;23.350;2022-08-19T06:03:52;95120.72;;;23.05;98.75
14067;BME280;7108;42.684;23.350;2022-08-19T06:06:19;95113.25;;;23.06;98.54
14067;BME280;7108;42.684;23.350;2022-08-19T06:08:45;95116.22;;;23.11;99.23
14067;BME280;7108;42.684;23.350;2022-08-19T06:13:41;95131.94;;;23.35;97.84
14067;BME280;7108;42.684;23.350;2022-08-19T06:16:07;95106.44;;;23.35;97.37
14067;BME280;7108;42.684;23.350;2022-08-19T06:18:32;95109.28;;;23.44;98.06
14067;BME280;7108;42.684;23.350;2022-08-19T06:20:58;95127.19;;;23.61;97.38
14067;BME280;7108;42.684;23.350;2022-08-19T06:23:24;95116.19;;;23.61;93.38
14067;BME280;7108;42.684;23.350;2022-08-19T06:25:50;95113.00;;;23.62;92.44
14067;BME280;7108;42.684;23.350;2022-08-19T06:28:16;95117.84;;;23.71;91.60
14067;BME280;7108;42.684;23.350;2022-08-19T06:30:41;95126.19;;;23.79;85.75
14067;BME280;7108;42.684;23.350;2022-08-19T06:33:07;95116.66;;;23.72;86.88
14067;BME280;7108;42.684;23.350;2022-08-19T06:35:32;95136.00;;;23.80;87.31
14067;BME280;7108;42.684;23.350;2022-08-19T06:37:58;95111.34;;;23.77;87.28
14067;BME280;7108;42.684;23.350;2022-08-19T06:40:24;95131.09;;;23.97;87.10
14067;BME280;7108;42.684;23.350;2022-08-19T06:42:52;95117.84;;;24.04;85.03
14067;BME280;7108;42.684;23.350;2022-08-19T06:45:18;95115.09;;;24.04;83.89
14067;BME280;7108;42.684;23.350;2022-08-19T06:47:45;95121.47;;;24.14;83.47
14067;BME280;7108;42.684;23.350;2022-08-19T06:50:11;95120.88;;;24.19;83.01
14067;BME280;7108;42.684;23.350;2022-08-19T06:52:37;95129.56;;;24.30;83.46
14067;BME280;7108;42.684;23.350;2022-08-19T06:55:05;95137.56;;;24.37;82.98
14067;BME280;7108;42.684;23.350;2022-08-19T06:57:30;95123.56;;;24.44;83.58
14067;BME280;7108;42.684;23.350;2022-08-19T06:59:58;95122.41;;;24.53;83.38
14067;BME280;7108;42.684;23.350;2022-08-19T07:02:25;95129.34;;;24.58;77.86
14067;BME280;7108;42.684;23.350;2022-08-19T07:04:52;95134.16;;;24.66;78.54
14067;BME280;7108;42.684;23.350;2022-08-19T07:07:19;95135.84;;;24.73;79.94
14067;BME280;7108;42.684;23.350;2022-08-19T07:09:45;95125.16;;;24.75;79.19
14067;BME280;7108;42.684;23.350;2022-08-19T07:12:13;95127.78;;;24.78;77.23
14067;BME280;7108;42.684;23.350;2022-08-19T07:14:40;95121.03;;;24.79;73.13
14067;BME280;7108;42.684;23.350;2022-08-19T07:17:09;95125.66;;;24.82;72.64
14067;BME280;7108;42.684;23.350;2022-08-19T07:19:35;95115.72;;;24.85;72.34
14067;BME280;7108;42.684;23.350;2022-08-19T07:22:03;95122.00;;;24.85;71.96
14067;BME280;7108;42.684;23.350;2022-08-19T07:24:29;95135.44;;;25.05;72.24
14067;BME280;7108;42.684;23.350;2022-08-19T07:26:57;95127.16;;;25.05;70.47
14067;BME280;7108;42.684;23.350;2022-08-19T07:29:27;95127.84;;;25.17;71.31
14067;BME280;7108;42.684;23.350;2022-08-19T07:31:54;95124.06;;;25.24;71.30
14067;BME280;7108;42.684;23.350;2022-08-19T07:34:22;95122.28;;;25.30;69.50
14067;BME280;7108;42.684;23.350;2022-08-19T07:36:49;95115.47;;;25.22;69.26
14067;BME280;7108;42.684;23.350;2022-08-19T07:39:24;95114.41;;;25.28;68.07
14067;BME280;7108;42.684;23.350;2022-08-19T07:41:50;95101.13;;;25.36;68.57
14067;BME280;7108;42.684;23.350;2022-08-19T07:44:16;95118.66;;;25.51;67.19
14067;BME280;7108;42.684;23.350;2022-08-19T07:46:45;95119.44;;;25.60;68.84
14067;BME280;7108;42.684;23.350;2022-08-19T07:49:12;95109.81;;;25.65;66.96
14067;BME280;7108;42.684;23.350;2022-08-19T07:51:43;95104.44;;;25.70;67.32
14067;BME280;7108;42.684;23.350;2022-08-19T07:54:09;95118.91;;;25.83;65.44
14067;BME280;7108;42.684;23.350;2022-08-19T07:56:34;95114.34;;;25.89;65.46
14067;BME280;7108;42.684;23.350;2022-08-19T07:59:00;95117.84;;;25.98;63.96
14067;BME280;7108;42.684;23.350;2022-08-19T08:01:26;95116.81;;;26.05;63.82
14067;BME280;7108;42.684;23.350;2022-08-19T08:03:54;95112.22;;;26.11;62.92
14067;BME280;7108;42.684;23.350;2022-08-19T08:06:38;95112.97;;;26.20;63.50
14067;BME280;7108;42.684;23.350;2022-08-19T08:09:27;95118.34;;;26.33;60.87
14067;BME280;7108;42.684;23.350;2022-08-19T08:12:01;95110.53;;;26.40;62.07
14067;BME280;7108;42.684;23.350;2022-08-19T08:14:30;95112.06;;;26.41;60.47
14067;BME280;7108;42.684;23.350;2022-08-19T08:16:57;95111.63;;;26.51;61.10
14067;BME280;7108;42.684;23.350;2022-08-19T08:19:24;95111.28;;;26.58;59.91
14067;BME280;7108;42.684;23.350;2022-08-19T08:21:50;95103.00;;;26.58;57.14
14067;BME280;7108;42.684;23.350;2022-08-19T08:24:16;95103.91;;;26.64;57.79
14067;BME280;7108;42.684;23.350;2022-08-19T08:26:42;95094.41;;;26.65;58.07
14067;BME280;7108;42.684;23.350;2022-08-19T08:29:10;95098.53;;;26.79;57.01
14067;BME280;7108;42.684;23.350;2022-08-19T08:31:39;95098.22;;;26.86;56.88
14067;BME280;7108;42.684;23.350;2022-08-19T08:34:05;95090.03;;;26.91;55.33
14067;BME280;7108;42.684;23.350;2022-08-19T08:36:30;95089.88;;;27.04;54.84
14067;BME280;7108;42.684;23.350;2022-08-19T08:38:59;95084.78;;;27.11;54.55
14067;BME280;7108;42.684;23.350;2022-08-19T08:44:00;95094.19;;;27.37;51.85
14067;BME280;7108;42.684;23.350;2022-08-19T08:46:47;95087.28;;;27.41;51.54
14067;BME280;7108;42.684;23.350;2022-08-19T08:49:42;95082.47;;;27.51;52.73
14067;BME280;7108;42.684;23.350;2022-08-19T08:52:13;95083.81;;;27.55;51.53
14067;BME280;7108;42.684;23.350;2022-08-19T08:54:44;95063.09;;;27.51;48.99
14067;BME280;7108;42.684;23.350;2022-08-19T08:57:15;95080.84;;;27.68;49.84
14067;BME280;7108;42.684;23.350;2022-08-19T08:59:47;95082.16;;;27.81;48.34
14067;BME280;7108;42.684;23.350;2022-08-19T09:02:16;95077.78;;;27.89;47.70
14067;BME280;7108;42.684;23.350;2022-08-19T09:04:42;95074.97;;;27.98;47.48
14067;BME280;7108;42.684;23.350;2022-08-19T09:09:49;95072.03;;;28.16;46.80
14067;BME280;7108;42.684;23.350;2022-08-19T09:15:22;95055.22;;;28.43;44.74
14067;BME280;7108;42.684;23.350;2022-08-19T09:17:52;95053.03;;;28.47;44.83
14067;BME280;7108;42.684;23.350;2022-08-19T09:20:20;95051.41;;;28.54;44.13
14067;BME280;7108;42.684;23.350;2022-08-19T09:22:46;95043.09;;;28.54;44.02
14067;BME280;7108;42.684;23.350;2022-08-19T09:25:16;95048.06;;;28.65;43.03
14067;BME280;7108;42.684;23.350;2022-08-19T09:27:43;95055.16;;;28.80;41.94
14067;BME280;7108;42.684;23.350;2022-08-19T09:30:18;95045.63;;;28.81;40.22
14067;BME280;7108;42.684;23.350;2022-08-19T09:32:45;95043.50;;;28.91;39.62
14067;BME280;7108;42.684;23.350;2022-08-19T09:35:12;95045.69;;;29.01;39.96
14067;BME280;7108;42.684;23.350;2022-08-19T09:37:38;95037.25;;;29.10;38.80
14067;BME280;7108;42.684;23.350;2022-08-19T09:40:04;95027.69;;;29.11;39.43
14067;BME280;7108;42.684;23.350;2022-08-19T09:42:30;95012.47;;;29.07;36.81
14067;BME280;7108;42.684;23.350;2022-08-19T09:44:55;95040.69;;;29.34;36.99
14067;BME280;7108;42.684;23.350;2022-08-19T09:47:20;95036.00;;;29.40;37.01
14067;BME280;7108;42.684;23.350;2022-08-19T09:49:46;95029.13;;;29.55;35.14
14067;BME280;7108;42.684;23.350;2022-08-19T09:52:14;95026.72;;;29.63;35.64
14067;BME280;7108;42.684;23.350;2022-08-19T09:54:41;95026.78;;;29.68;36.03
14067;BME280;7108;42.684;23.350;2022-08-19T09:57:07;95017.47;;;29.71;36.87
14067;BME280;7108;42.684;23.350;2022-08-19T09:59:33;95028.38;;;29.89;36.65
14067;BME280;7108;42.684;23.350;2022-08-19T10:01:59;95014.25;;;29.92;35.31
14067;BME280;7108;42.684;23.350;2022-08-19T10:04:24;95015.34;;;30.20;35.75
14067;BME280;7108;42.684;23.350;2022-08-19T10:07:10;95007.81;;;30.26;35.71
14067;BME280;7108;42.684;23.350;2022-08-19T10:09:35;95001.66;;;30.42;34.51
14067;BME280;7108;42.684;23.350;2022-08-19T10:12:03;94986.59;;;30.49;35.88
14067;BME280;7108;42.684;23.350;2022-08-19T10:14:30;94999.94;;;30.70;35.72
14067;BME280;7108;42.684;23.350;2022-08-19T10:16:56;94988.66;;;30.79;34.88
14067;BME280;7108;42.684;23.350;2022-08-19T10:19:22;94991.53;;;30.90;34.63
14067;BME280;7108;42.684;23.350;2022-08-19T10:21:47;94995.47;;;31.03;34.21
14067;BME280;7108;42.684;23.350;2022-08-19T10:24:13;94996.00;;;31.13;33.50
14067;BME280;7108;42.684;23.350;2022-08-19T10:26:40;94990.44;;;31.13;33.67
14067;BME280;7108;42.684;23.350;2022-08-19T10:29:10;94993.53;;;31.20;34.84
14067;BME280;7108;42.684;23.350;2022-08-19T10:31:37;94991.78;;;31.23;33.68
14067;BME280;7108;42.684;23.350;2022-08-19T10:34:02;94990.50;;;31.18;33.53
14067;BME280;7108;42.684;23.350;2022-08-19T10:36:31;94990.81;;;31.25;33.20
14067;BME280;7108;42.684;23.350;2022-08-19T10:38:59;94992.13;;;31.35;32.88
14067;BME280;7108;42.684;23.350;2022-08-19T10:41:32;94988.34;;;31.38;32.86
14067;BME280;7108;42.684;23.350;2022-08-19T10:44:04;94975.41;;;31.35;32.83
14067;BME280;7108;42.684;23.350;2022-08-19T10:46:31;94980.78;;;31.44;33.57
14067;BME280;7108;42.684;23.350;2022-08-19T10:48:59;94976.53;;;31.49;33.43
14067;BME280;7108;42.684;23.350;2022-08-19T10:51:25;94979.63;;;31.56;33.03
14067;BME280;7108;42.684;23.350;2022-08-19T10:54:09;94966.19;;;31.55;33.05
14067;BME280;7108;42.684;23.350;2022-08-19T10:56:35;94970.53;;;31.67;32.89
14067;BME280;7108;42.684;23.350;2022-08-19T10:59:18;94971.31;;;31.67;32.83
14067;BME280;7108;42.684;23.350;2022-08-19T11:01:45;94975.66;;;31.74;32.45
14067;BME280;7108;42.684;23.350;2022-08-19T11:04:12;94976.91;;;31.73;32.80
14067;BME280;7108;42.684;23.350;2022-08-19T11:06:39;94978.72;;;31.81;32.49
14067;BME280;7108;42.684;23.350;2022-08-19T11:09:07;94969.84;;;31.83;32.71
14067;BME280;7108;42.684;23.350;2022-08-19T11:11:34;94969.91;;;31.93;32.46
14067;BME280;7108;42.684;23.350;2022-08-19T11:14:12;94961.53;;;31.93;34.67
14067;BME280;7108;42.684;23.350;2022-08-19T11:16:39;94967.47;;;32.06;33.38
14067;BME280;7108;42.684;23.350;2022-08-19T11:19:07;94961.66;;;32.15;36.01
14067;BME280;7108;42.684;23.350;2022-08-19T11:21:35;94971.31;;;32.20;32.94
14067;BME280;7108;42.684;23.350;2022-08-19T11:24:22;94960.66;;;32.29;32.19
14067;BME280;7108;42.684;23.350;2022-08-19T11:26:50;94953.56;;;32.34;32.33
14067;BME280;7108;42.684;23.350;2022-08-19T11:29:18;94947.22;;;32.33;31.85
14067;BME280;7108;42.684;23.350;2022-08-19T11:31:46;94946.47;;;32.27;31.04
14067;BME280;7108;42.684;23.350;2022-08-19T11:34:16;94946.22;;;32.36;31.56
14067;BME280;7108;42.684;23.350;2022-08-19T11:36:44;94943.97;;;32.51;31.79
14067;BME280;7108;42.684;23.350;2022-08-19T11:39:12;94935.38;;;32.55;33.74
14067;BME280;7108;42.684;23.350;2022-08-19T11:41:38;94938.66;;;32.59;32.15
14067;BME280;7108;42.684;23.350;2022-08-19T11:44:04;94932.09;;;32.62;32.72
14067;BME280;7108;42.684;23.350;2022-08-19T11:46:30;94939.44;;;32.75;32.10
14067;BME280;7108;42.684;23.350;2022-08-19T11:48:58;94925.75;;;32.66;30.71
14067;BME280;7108;42.684;23.350;2022-08-19T11:51:26;94928.78;;;32.74;31.87
14067;BME280;7108;42.684;23.350;2022-08-19T11:53:53;94936.38;;;32.84;31.55
14067;BME280;7108;42.684;23.350;2022-08-19T11:56:20;94932.56;;;32.98;31.81
14067;BME280;7108;42.684;23.350;2022-08-19T11:58:46;94932.34;;;33.07;32.52
14067;BME280;7108;42.684;23.350;2022-08-19T12:01:13;94920.94;;;33.11;31.51
14067;BME280;7108;42.684;23.350;2022-08-19T12:03:41;94910.50;;;33.00;30.46
14067;BME280;7108;42.684;23.350;2022-08-19T12:06:10;94897.03;;;32.99;30.54
14067;BME280;7108;42.684;23.350;2022-08-19T12:08:39;94894.25;;;32.99;31.08
14067;BME280;7108;42.684;23.350;2022-08-19T12:11:05;94904.66;;;33.15;30.95
14067;BME280;7108;42.684;23.350;2022-08-19T12:13:33;94902.34;;;33.19;30.75
14067;BME280;7108;42.684;23.350;2022-08-19T12:15:59;94891.19;;;33.02;30.18
14067;BME280;7108;42.684;23.350;2022-08-19T12:18:24;94901.13;;;33.03;30.13
14067;BME280;7108;42.684;23.350;2022-08-19T12:20:51;94898.34;;;33.03;30.36
14067;BME280;7108;42.684;23.350;2022-08-19T12:23:18;94894.78;;;33.08;30.92
14067;BME280;7108;42.684;23.350;2022-08-19T12:25:46;94885.88;;;33.10;30.90
14067;BME280;7108;42.684;23.350;2022-08-19T12:28:16;94878.00;;;33.14;29.95
14067;BME280;7108;42.684;23.350;2022-08-19T12:30:41;94877.75;;;33.17;30.08
14067;BME280;7108;42.684;23.350;2022-08-19T12:33:07;94875.72;;;33.12;30.32
14067;BME280;7108;42.684;23.350;2022-08-19T12:35:33;94886.13;;;33.12;30.67
14067;BME280;7108;42.684;23.350;2022-08-19T12:37:58;94875.22;;;33.08;30.31
14067;BME280;7108;42.684;23.350;2022-08-19T12:40:28;94879.25;;;33.02;30.08
14067;BME280;7108;42.684;23.350;2022-08-19T12:42:54;94874.94;;;33.01;30.39
14067;BME280;7108;42.684;23.350;2022-08-19T12:45:19;94872.41;;;33.03;29.97
14067;BME280;7108;42.684;23.350;2022-08-19T12:47:44;94863.00;;;33.00;30.23
14067;BME280;7108;42.684;23.350;2022-08-19T12:50:11;94861.75;;;32.90;30.30
14067;BME280;7108;42.684;23.350;2022-08-19T12:52:36;94863.81;;;32.90;29.85
14067;BME280;7108;42.684;23.350;2022-08-19T12:55:03;94862.78;;;32.87;30.56
14067;BME280;7108;42.684;23.350;2022-08-19T12:57:29;94869.16;;;32.82;30.66
14067;BME280;7108;42.684;23.350;2022-08-19T12:59:56;94860.78;;;32.71;30.78
14067;BME280;7108;42.684;23.350;2022-08-19T13:02:22;94861.78;;;32.68;30.60
14067;BME280;7108;42.684;23.350;2022-08-19T13:04:48;94863.31;;;32.69;31.48
14067;BME280;7108;42.684;23.350;2022-08-19T13:07:13;94849.09;;;32.67;30.40
14067;BME280;7108;42.684;23.350;2022-08-19T13:09:39;94845.81;;;32.63;30.46
14067;BME280;7108;42.684;23.350;2022-08-19T13:12:08;94849.88;;;32.68;31.17
14067;BME280;7108;42.684;23.350;2022-08-19T13:14:39;94856.22;;;32.74;30.77
14067;BME280;7108;42.684;23.350;2022-08-19T13:17:06;94846.84;;;32.71;31.28